sensor_id;sensor_type;location;lat;lon;timestamp;pressure;altitude;pressure_sealevel;temperature;humidity
19843;BME280;10082;51.038;6.992;2023-05-20T00:01:47;112171.53;;;-144.33;87.23
19843;BME280;10082;51.038;6.992;2023-05-20T00:04:15;112171.53;;;-144.33;87.37
19843;BME280;10082;51.038;6.992;2023-05-20T00:06:42;112171.53;;;-144.33;87.03
19843;BME280;10082;51.038;6.992;2023-05-20T00:09:09;112171.53;;;-144.33;87.48
19843;BME280;10082;51.038;6.992;2023-05-20T00:11:38;112171.53;;;-144.33;87.46
19843;BME280;10082;51.038;6.992;2023-05-20T00:14:05;112171.53;;;-144.33;86.94
19843;BME280;10082;51.038;6.992;2023-05-20T00:16:32;112171.53;;;-144.33;88.73
19843;BME280;10082;51.038;6.992;2023-05-20T00:18:59;112171.53;;;-144.33;88.81
19843;BME280;10082;51.038;6.992;2023-05-20T00:21:26;112171.53;;;-144.33;88.58
19843;BME280;10082;51.038;6.992;2023-05-20T00:23:54;112171.53;;;-144.33;88.83
19843;BME280;10082;51.038;6.992;2023-05-20T00:26:27;112171.53;;;-144.33;90.03
19843;BME280;10082;51.038;6.992;2023-05-20T00:28:57;112171.53;;;-144.33;89.83
19843;BME280;10082;51.038;6.992;2023-05-20T00:31:24;112171.53;;;-144.33;90.52
19843;BME280;10082;51.038;6.992;2023-05-20T00:33:51;112171.53;;;-144.33;90.63
19843;BME280;10082;51.038;6.992;2023-05-20T00:36:19;112171.53;;;-144.33;90.86
19843;BME280;10082;51.038;6.992;2023-05-20T00:38:47;112171.53;;;-144.33;91.04
19843;BME280;10082;51.038;6.992;2023-05-20T00:41:13;112171.53;;;-144.33;90.77
19843;BME280;10082;51.038;6.992;2023-05-20T00:43:40;112171.53;;;-144.33;91.70
19843;BME280;10082;51.038;6.992;2023-05-20T00:46:09;112171.53;;;-144.33;91.85
19843;BME280;10082;51.038;6.992;2023-05-20T00:48:40;112171.53;;;-144.33;92.63
19843;BME280;10082;51.038;6.992;2023-05-20T00:51:09;112171.53;;;-144.33;92.15
19843;BME280;10082;51.038;6.992;2023-05-20T00:53:37;112171.53;;;-144.33;91.84
19843;BME280;10082;51.038;6.992;2023-05-20T00:56:05;112171.53;;;-144.33;92.08
19843;BME280;10082;51.038;6.992;2023-05-20T00:58:33;112171.53;;;-144.33;91.10
19843;BME280;10082;51.038;6.992;2023-05-20T01:01:01;112171.53;;;-144.33;90.29
19843;BME280;10082;51.038;6.992;2023-05-20T01:03:29;112171.53;;;-144.33;89.74
19843;BME280;10082;51.038;6.992;2023-05-20T01:05:57;112171.53;;;-144.33;89.31
19843;BME280;10082;51.038;6.992;2023-05-20T01:08:24;112171.53;;;-144.33;89.70
19843;BME280;10082;51.038;6.992;2023-05-20T01:11:03;112171.53;;;-144.33;89.09
19843;BME280;10082;51.038;6.992;2023-05-20T01:13:35;112171.53;;;-144.33;88.97
19843;BME280;10082;51.038;6.992;2023-05-20T01:16:06;112171.53;;;-144.33;88.65
19843;BME280;10082;51.038;6.992;2023-05-20T01:18:40;112171.53;;;-144.33;88.92
19843;BME280;10082;51.038;6.992;2023-05-20T01:21:10;112171.53;;;-144.33;89.18
19843;BME280;10082;51.038;6.992;2023-05-20T01:23:40;112171.53;;;-144.33;88.96
19843;BME280;10082;51.038;6.992;2023-05-20T01:26:08;112171.53;;;-144.33;89.30
19843;BME280;10082;51.038;6.992;2023-05-20T01:28:38;112171.53;;;-144.33;90.27
19843;BME280;10082;51.038;6.992;2023-05-20T01:31:13;112171.53;;;-144.33;90.63
19843;BME280;10082;51.038;6.992;2023-05-20T01:33:42;112171.53;;;-144.33;91.04
19843;BME280;10082;51.038;6.992;2023-05-20T01:36:09;112171.53;;;-144.33;90.93
19843;BME280;10082;51.038;6.992;2023-05-20T01:38:40;112171.53;;;-144.33;92.02
19843;BME280;10082;51.038;6.992;2023-05-20T01:41:08;112171.53;;;-144.33;93.53
19843;BME280;10082;51.038;6.992;2023-05-20T01:43:37;112171.53;;;-144.33;95.05
19843;BME280;10082;51.038;6.992;2023-05-20T01:46:05;112171.53;;;-144.33;96.35
19843;BME280;10082;51.038;6.992;2023-05-20T01:48:32;112171.53;;;-144.33;97.33
19843;BME280;10082;51.038;6.992;2023-05-20T01:51:00;112171.53;;;-144.33;98.01
19843;BME280;10082;51.038;6.992;2023-05-20T01:53:28;112171.53;;;-144.33;98.72
19843;BME280;10082;51.038;6.992;2023-05-20T01:55:57;112171.53;;;-144.33;99.81
19843;BME280;10082;51.038;6.992;2023-05-20T01:58:25;112171.53;;;-144.33;100.00
19843;BME280;10082;51.038;6.992;2023-05-20T02:00:52;112171.53;;;-144.33;100.00
19843;BME280;10082;51.038;6.992;2023-05-20T02:03:18;112171.53;;;-144.33;100.00
19843;BME280;10082;51.038;6.992;2023-05-20T02:05:45;112171.53;;;-144.33;100.00
19843;BME280;10082;51.038;6.992;2023-05-20T02:08:13;112171.53;;;-144.33;100.00
19843;BME280;10082;51.038;6.992;2023-05-20T02:10:39;112171.53;;;-144.33;100.00
19843;BME280;10082;51.038;6.992;2023-05-20T02:13:08;112171.53;;;-144.33;100.00
19843;BME280;10082;51.038;6.992;2023-05-20T02:15:42;112171.53;;;-144.33;100.00
19843;BME280;10082;51.038;6.992;2023-05-20T02:18:09;112171.53;;;-144.33;100.00
19843;BME280;10082;51.038;6.992;2023-05-20T02:20:38;112171.53;;;-144.33;100.00
19843;BME280;10082;51.038;6.992;2023-05-20T02:23:05;112171.53;;;-144.33;100.00
19843;BME280;10082;51.038;6.992;2023-05-20T02:25:33;112171.53;;;-144.33;100.00
19843;BME280;10082;51.038;6.992;2023-05-20T02:28:01;112171.53;;;-144.33;100.00
19843;BME280;10082;51.038;6.992;2023-05-20T02:30:31;112171.53;;;-144.33;100.00
19843;BME280;10082;51.038;6.992;2023-05-20T02:32:58;112171.53;;;-144.33;100.00
19843;BME280;10082;51.038;6.992;2023-05-20T02:35:26;112171.53;;;-144.33;100.00
19843;BME280;10082;51.038;6.992;2023-05-20T02:37:53;112171.53;;;-144.33;100.00
19843;BME280;10082;51.038;6.992;2023-05-20T02:40:21;112171.53;;;-144.33;100.00
19843;BME280;10082;51.038;6.992;2023-05-20T02:42:48;112171.53;;;-144.33;100.00
19843;BME280;10082;51.038;6.992;2023-05-20T02:45:15;112171.53;;;-144.33;100.00
19843;BME280;10082;51.038;6.992;2023-05-20T02:47:45;112171.53;;;-144.33;100.00
19843;BME280;10082;51.038;6.992;2023-05-20T02:50:12;112171.53;;;-144.33;100.00
19843;BME280;10082;51.038;6.992;2023-05-20T02:52:39;112171.53;;;-144.33;100.00
19843;BME280;10082;51.038;6.992;2023-05-20T02:55:08;112171.53;;;-144.33;100.00
19843;BME280;10082;51.038;6.992;2023-05-20T02:57:34;112171.53;;;-144.33;100.00
19843;BME280;10082;51.038;6.992;2023-05-20T03:00:07;112171.53;;;-144.33;100.00
19843;BME280;10082;51.038;6.992;2023-05-20T03:02:36;112171.53;;;-144.33;100.00
19843;BME280;10082;51.038;6.992;2023-05-20T03:05:05;112171.53;;;-144.33;100.00
19843;BME280;10082;51.038;6.992;2023-05-20T03:07:35;112171.53;;;-144.33;100.00
19843;BME280;10082;51.038;6.992;2023-05-20T03:10:06;112171.53;;;-144.33;100.00
19843;BME280;10082;51.038;6.992;2023-05-20T03:12:33;112171.53;;;-144.33;100.00
19843;BME280;10082;51.038;6.992;2023-05-20T03:15:01;112171.53;;;-144.33;100.00
19843;BME280;10082;51.038;6.992;2023-05-20T03:17:28;112171.53;;;-144.33;100.00
19843;BME280;10082;51.038;6.992;2023-05-20T03:19:55;112171.53;;;-144.33;100.00
19843;BME280;10082;51.038;6.992;2023-05-20T03:22:26;112171.53;;;-144.33;100.00
19843;BME280;10082;51.038;6.992;2023-05-20T03:24:53;112171.53;;;-144.33;100.00
19843;BME280;10082;51.038;6.992;2023-05-20T03:27:20;112171.53;;;-144.33;100.00
19843;BME280;10082;51.038;6.992;2023-05-20T03:29:47;112171.53;;;-144.33;100.00
19843;BME280;10082;51.038;6.992;2023-05-20T03:32:16;112171.53;;;-144.33;100.00
19843;BME280;10082;51.038;6.992;2023-05-20T03:34:42;111698.53;;;-144.33;100.00
19843;BME280;10082;51.038;6.992;2023-05-20T03:37:10;108320.50;;;-144.33;100.00
19843;BME280;10082;51.038;6.992;2023-05-20T03:39:38;104193.84;;;-144.33;100.00
19843;BME280;10082;51.038;6.992;2023-05-20T03:42:05;100852.19;;;-144.33;100.00
19843;BME280;10082;51.038;6.992;2023-05-20T03:44:32;97256.53;;;-144.33;100.00
19843;BME280;10082;51.038;6.992;2023-05-20T03:46:59;94433.63;;;-144.33;100.00
19843;BME280;10082;51.038;6.992;2023-05-20T03:49:26;92638.25;;;-144.33;100.00
19843;BME280;10082;51.038;6.992;2023-05-20T03:51:52;94690.16;;;-144.33;100.00
19843;BME280;10082;51.038;6.992;2023-05-20T03:54:19;94433.63;;;-144.33;100.00
19843;BME280;10082;51.038;6.992;2023-05-20T03:56:50;95203.31;;;-144.33;100.00
19843;BME280;10082;51.038;6.992;2023-05-20T03:59:17;94690.16;;;-144.33;100.00
19843;BME280;10082;51.038;6.992;2023-05-20T04:01:46;93664.06;;;-144.33;100.00
19843;BME280;10082;51.038;6.992;2023-05-20T04:04:13;93664.06;;;-144.33;100.00
19843;BME280;10082;51.038;6.992;2023-05-20T04:06:43;93407.59;;;-144.33;100.00
19843;BME280;10082;51.038;6.992;2023-05-20T04:09:11;92638.25;;;-144.33;100.00
19843;BME280;10082;51.038;6.992;2023-05-20T04:11:38;97513.25;;;-144.33;100.00
19843;BME280;10082;51.038;6.992;2023-05-20T04:14:07;102908.28;;;-144.33;100.00
19843;BME280;10082;51.038;6.992;2023-05-20T04:16:34;105769.25;;;-144.33;100.00
19843;BME280;10082;51.038;6.992;2023-05-20T04:19:01;112171.53;;;-144.33;100.00
19843;BME280;10082;51.038;6.992;2023-05-20T04:21:29;112171.53;;;-144.33;100.00
19843;BME280;10082;51.038;6.992;2023-05-20T04:23:57;112171.53;;;-144.33;100.00
19843;BME280;10082;51.038;6.992;2023-05-20T04:26:24;112171.53;;;-144.33;100.00
19843;BME280;10082;51.038;6.992;2023-05-20T04:28:51;112171.53;;;-144.33;100.00
19843;BME280;10082;51.038;6.992;2023-05-20T04:31:20;112171.53;;;-144.33;100.00
19843;BME280;10082;51.038;6.992;2023-05-20T04:33:51;112171.53;;;-144.33;100.00
19843;BME280;10082;51.038;6.992;2023-05-20T04:36:18;112171.53;;;-144.33;100.00
19843;BME280;10082;51.038;6.992;2023-05-20T04:38:48;112171.53;;;-144.33;100.00
19843;BME280;10082;51.038;6.992;2023-05-20T04:41:15;112171.53;;;-144.33;100.00
19843;BME280;10082;51.038;6.992;2023-05-20T04:43:43;112171.53;;;-144.33;100.00
19843;BME280;10082;51.038;6.992;2023-05-20T04:46:10;112171.53;;;-144.33;100.00
19843;BME280;10082;51.038;6.992;2023-05-20T04:48:40;112171.53;;;-144.33;100.00
19843;BME280;10082;51.038;6.992;2023-05-20T04:51:09;112171.53;;;-144.33;100.00
19843;BME280;10082;51.038;6.992;2023-05-20T04:53:36;112171.53;;;-144.33;100.00
19843;BME280;10082;51.038;6.992;2023-05-20T04:56:05;112171.53;;;-144.33;100.00
19843;BME280;10082;51.038;6.992;2023-05-20T04:58:32;112171.53;;;-144.33;100.00
19843;BME280;10082;51.038;6.992;2023-05-20T05:00:59;112171.53;;;-144.33;100.00
19843;BME280;10082;51.038;6.992;2023-05-20T05:03:27;112171.53;;;-144.33;100.00
19843;BME280;10082;51.038;6.992;2023-05-20T05:05:57;112171.53;;;-144.33;100.00
19843;BME280;10082;51.038;6.992;2023-05-20T05:08:25;112171.53;;;-144.33;100.00
19843;BME280;10082;51.038;6.992;2023-05-20T05:10:53;112171.53;;;-144.33;100.00
19843;BME280;10082;51.038;6.992;2023-05-20T05:13:21;112171.53;;;-144.33;100.00
19843;BME280;10082;51.038;6.992;2023-05-20T05:15:47;112171.53;;;-144.33;100.00
19843;BME280;10082;51.038;6.992;2023-05-20T05:18:16;112171.53;;;-144.33;100.00
19843;BME280;10082;51.038;6.992;2023-05-20T05:20:44;112171.53;;;-144.33;100.00
19843;BME280;10082;51.038;6.992;2023-05-20T05:23:13;112171.53;;;-144.33;100.00
19843;BME280;10082;51.038;6.992;2023-05-20T05:25:40;112171.53;;;-144.33;100.00
19843;BME280;10082;51.038;6.992;2023-05-20T05:28:07;112171.53;;;-144.33;99.36
19843;BME280;10082;51.038;6.992;2023-05-20T05:30:35;112171.53;;;-144.33;95.72
19843;BME280;10082;51.038;6.992;2023-05-20T05:33:02;112171.53;;;-144.33;92.88
19843;BME280;10082;51.038;6.992;2023-05-20T05:38:17;112171.53;;;-144.33;94.81
19843;BME280;10082;51.038;6.992;2023-05-20T05:40:45;112171.53;;;-144.33;94.59
19843;BME280;10082;51.038;6.992;2023-05-20T05:43:12;112171.53;;;-144.33;95.24
19843;BME280;10082;51.038;6.992;2023-05-20T05:45:40;112171.53;;;-144.33;95.15
19843;BME280;10082;51.038;6.992;2023-05-20T05:48:08;112171.53;;;-144.33;95.23
19843;BME280;10082;51.038;6.992;2023-05-20T05:50:35;112171.53;;;-144.33;95.47
19843;BME280;10082;51.038;6.992;2023-05-20T05:53:03;112171.53;;;-144.33;93.37
19843;BME280;10082;51.038;6.992;2023-05-20T05:55:32;112171.53;;;-144.33;94.31
19843;BME280;10082;51.038;6.992;2023-05-20T05:58:05;112171.53;;;-144.33;93.13
19843;BME280;10082;51.038;6.992;2023-05-20T06:00:32;112171.53;;;-144.33;93.47
19843;BME280;10082;51.038;6.992;2023-05-20T06:02:59;112171.53;;;-144.33;93.38
19843;BME280;10082;51.038;6.992;2023-05-20T06:05:31;112171.53;;;-144.33;93.32
19843;BME280;10082;51.038;6.992;2023-05-20T06:07:59;112171.53;;;-144.33;92.43
19843;BME280;10082;51.038;6.992;2023-05-20T06:10:27;112171.53;;;-144.33;91.90
19843;BME280;10082;51.038;6.992;2023-05-20T06:12:56;112171.53;;;-144.33;91.76
19843;BME280;10082;51.038;6.992;2023-05-20T06:15:24;112171.53;;;-144.33;90.07
19843;BME280;10082;51.038;6.992;2023-05-20T06:17:51;112171.53;;;-144.33;89.76
19843;BME280;10082;51.038;6.992;2023-05-20T06:20:19;112171.53;;;-144.33;89.86
19843;BME280;10082;51.038;6.992;2023-05-20T06:22:46;112171.53;;;-144.33;89.40
19843;BME280;10082;51.038;6.992;2023-05-20T06:25:13;112171.53;;;-144.33;88.94
19843;BME280;10082;51.038;6.992;2023-05-20T06:27:41;112171.53;;;-144.33;87.51
19843;BME280;10082;51.038;6.992;2023-05-20T06:30:12;112171.53;;;-144.33;87.03
19843;BME280;10082;51.038;6.992;2023-05-20T06:32:39;112171.53;;;-144.33;87.00
19843;BME280;10082;51.038;6.992;2023-05-20T06:35:07;112171.53;;;-144.33;85.95
19843;BME280;10082;51.038;6.992;2023-05-20T06:37:35;112171.53;;;-144.33;86.22
19843;BME280;10082;51.038;6.992;2023-05-20T06:40:02;112171.53;;;-144.33;84.88
19843;BME280;10082;51.038;6.992;2023-05-20T06:42:31;112171.53;;;-144.33;83.78
19843;BME280;10082;51.038;6.992;2023-05-20T06:45:07;112171.53;;;-144.33;84.73
19843;BME280;10082;51.038;6.992;2023-05-20T06:47:46;112171.53;;;-144.33;84.51
19843;BME280;10082;51.038;6.992;2023-05-20T06:50:14;112171.53;;;-144.33;83.69
19843;BME280;10082;51.038;6.992;2023-05-20T06:52:41;112171.53;;;-144.33;83.62
19843;BME280;10082;51.038;6.992;2023-05-20T06:55:09;112171.53;;;-144.33;83.23
19843;BME280;10082;51.038;6.992;2023-05-20T06:57:38;112171.53;;;-144.33;83.02
19843;BME280;10082;51.038;6.992;2023-05-20T07:00:07;112171.53;;;-144.33;82.13
19843;BME280;10082;51.038;6.992;2023-05-20T07:02:39;112171.53;;;-144.33;81.67
19843;BME280;10082;51.038;6.992;2023-05-20T07:05:09;112171.53;;;-144.33;81.51
19843;BME280;10082;51.038;6.992;2023-05-20T07:07:36;112171.53;;;-144.33;81.99
19843;BME280;10082;51.038;6.992;2023-05-20T07:10:04;112171.53;;;-144.33;82.66
19843;BME280;10082;51.038;6.992;2023-05-20T07:12:31;112171.53;;;-144.33;81.60
19843;BME280;10082;51.038;6.992;2023-05-20T07:14:59;112171.53;;;-144.33;80.41
19843;BME280;10082;51.038;6.992;2023-05-20T07:17:26;112171.53;;;-144.33;77.92
19843;BME280;10082;51.038;6.992;2023-05-20T07:19:54;112171.53;;;-144.33;77.01
19843;BME280;10082;51.038;6.992;2023-05-20T07:22:24;112171.53;;;-144.33;75.82
19843;BME280;10082;51.038;6.992;2023-05-20T07:25:06;112171.53;;;-144.33;76.26
19843;BME280;10082;51.038;6.992;2023-05-20T07:27:35;112171.53;;;-144.33;75.38
19843;BME280;10082;51.038;6.992;2023-05-20T07:30:02;112171.53;;;-144.33;74.25
19843;BME280;10082;51.038;6.992;2023-05-20T07:32:31;112171.53;;;-144.33;72.12
19843;BME280;10082;51.038;6.992;2023-05-20T07:34:59;112171.53;;;-144.33;73.00
19843;BME280;10082;51.038;6.992;2023-05-20T07:37:28;112171.53;;;-144.33;72.14
19843;BME280;10082;51.038;6.992;2023-05-20T07:39:55;112171.53;;;-144.33;70.99
19843;BME280;10082;51.038;6.992;2023-05-20T07:42:22;112171.53;;;-144.33;71.10
19843;BME280;10082;51.038;6.992;2023-05-20T07:44:56;112171.53;;;-144.33;69.97
19843;BME280;10082;51.038;6.992;2023-05-20T07:47:25;112171.53;;;-144.33;70.81
19843;BME280;10082;51.038;6.992;2023-05-20T07:49:53;112171.53;;;-144.33;71.39
19843;BME280;10082;51.038;6.992;2023-05-20T07:52:20;112171.53;;;-144.33;71.21
19843;BME280;10082;51.038;6.992;2023-05-20T07:54:50;112171.53;;;-144.33;70.50
19843;BME280;10082;51.038;6.992;2023-05-20T07:57:17;112171.53;;;-144.33;70.51
19843;BME280;10082;51.038;6.992;2023-05-20T07:59:44;112171.53;;;-144.33;69.19
19843;BME280;10082;51.038;6.992;2023-05-20T08:02:11;112171.53;;;-144.33;69.71
19843;BME280;10082;51.038;6.992;2023-05-20T08:04:38;112171.53;;;-144.33;69.46
19843;BME280;10082;51.038;6.992;2023-05-20T08:07:06;112171.53;;;-144.33;68.43
19843;BME280;10082;51.038;6.992;2023-05-20T08:09:51;112171.53;;;-144.33;67.72
19843;BME280;10082;51.038;6.992;2023-05-20T08:12:19;112171.53;;;-144.33;66.79
19843;BME280;10082;51.038;6.992;2023-05-20T08:14:46;112171.53;;;-144.33;66.05
19843;BME280;10082;51.038;6.992;2023-05-20T08:17:14;112171.53;;;-144.33;64.25
19843;BME280;10082;51.038;6.992;2023-05-20T08:19:41;112171.53;;;-144.33;65.57
19843;BME280;10082;51.038;6.992;2023-05-20T08:22:08;112171.53;;;-144.33;66.19
19843;BME280;10082;51.038;6.992;2023-05-20T08:24:35;112171.53;;;-144.33;64.05
19843;BME280;10082;51.038;6.992;2023-05-20T08:27:04;112171.53;;;-144.33;63.51
19843;BME280;10082;51.038;6.992;2023-05-20T08:29:31;112171.53;;;-144.33;63.50
19843;BME280;10082;51.038;6.992;2023-05-20T08:32:02;112171.53;;;-144.33;63.06
19843;BME280;10082;51.038;6.992;2023-05-20T08:34:30;112171.53;;;-144.33;61.56
19843;BME280;10082;51.038;6.992;2023-05-20T08:36:57;112171.53;;;-144.33;59.32
19843;BME280;10082;51.038;6.992;2023-05-20T08:39:24;112171.53;;;-144.33;61.68
19843;BME280;10082;51.038;6.992;2023-05-20T08:41:51;112171.53;;;-144.33;61.40
19843;BME280;10082;51.038;6.992;2023-05-20T08:44:21;112171.53;;;-144.33;61.38
19843;BME280;10082;51.038;6.992;2023-05-20T08:46:50;112171.53;;;-144.33;60.94
19843;BME280;10082;51.038;6.992;2023-05-20T08:49:18;112171.53;;;-144.33;60.58
19843;BME280;10082;51.038;6.992;2023-05-20T08:51:46;112171.53;;;-144.33;59.54
19843;BME280;10082;51.038;6.992;2023-05-20T08:57:36;112171.53;;;-144.33;61.56
19843;BME280;10082;51.038;6.992;2023-05-20T09:00:09;112171.53;;;-144.33;63.20
19843;BME280;10082;51.038;6.992;2023-05-20T09:02:37;112171.53;;;-144.33;61.14
19843;BME280;10082;51.038;6.992;2023-05-20T09:05:05;112171.53;;;-144.33;60.35
19843;BME280;10082;51.038;6.992;2023-05-20T09:07:33;112171.53;;;-144.33;59.83
19843;BME280;10082;51.038;6.992;2023-05-20T09:10:01;112171.53;;;-144.33;60.42
19843;BME280;10082;51.038;6.992;2023-05-20T09:12:28;112171.53;;;-144.33;60.80
19843;BME280;10082;51.038;6.992;2023-05-20T09:14:55;112171.53;;;-144.33;62.64
19843;BME280;10082;51.038;6.992;2023-05-20T09:17:24;112171.53;;;-144.33;62.05
19843;BME280;10082;51.038;6.992;2023-05-20T09:19:52;112171.53;;;-144.33;61.70
19843;BME280;10082;51.038;6.992;2023-05-20T09:22:22;112171.53;;;-144.33;61.39
19843;BME280;10082;51.038;6.992;2023-05-20T09:24:50;112171.53;;;-144.33;62.36
19843;BME280;10082;51.038;6.992;2023-05-20T09:27:17;112171.53;;;-144.33;62.31
19843;BME280;10082;51.038;6.992;2023-05-20T09:29:46;112171.53;;;-144.33;62.18
19843;BME280;10082;51.038;6.992;2023-05-20T09:32:14;112171.53;;;-144.33;61.68
19843;BME280;10082;51.038;6.992;2023-05-20T09:34:42;112171.53;;;-144.33;64.59
19843;BME280;10082;51.038;6.992;2023-05-20T09:37:10;112171.53;;;-144.33;65.66
19843;BME280;10082;51.038;6.992;2023-05-20T09:39:43;112171.53;;;-144.33;63.91
19843;BME280;10082;51.038;6.992;2023-05-20T09:42:18;112171.53;;;-144.33;62.96
19843;BME280;10082;51.038;6.992;2023-05-20T09:44:49;112171.53;;;-144.33;60.65
19843;BME280;10082;51.038;6.992;2023-05-20T09:47:17;112171.53;;;-144.33;61.47
19843;BME280;10082;51.038;6.992;2023-05-20T09:49:47;112171.53;;;-144.33;58.81
19843;BME280;10082;51.038;6.992;2023-05-20T09:52:14;112171.53;;;-144.33;58.96
19843;BME280;10082;51.038;6.992;2023-05-20T09:54:43;112171.53;;;-144.33;57.79
19843;BME280;10082;51.038;6.992;2023-05-20T09:57:11;112171.53;;;-144.33;55.57
19843;BME280;10082;51.038;6.992;2023-05-20T09:59:39;112171.53;;;-144.33;57.05
19843;BME280;10082;51.038;6.992;2023-05-20T10:02:07;112171.53;;;-144.33;53.38
19843;BME280;10082;51.038;6.992;2023-05-20T10:04:36;112171.53;;;-144.33;51.72
19843;BME280;10082;51.038;6.992;2023-05-20T10:07:35;112171.53;;;-144.33;53.49
19843;BME280;10082;51.038;6.992;2023-05-20T10:10:18;112171.53;;;-144.33;55.18
19843;BME280;10082;51.038;6.992;2023-05-20T10:12:54;112171.53;;;-144.33;54.91
19843;BME280;10082;51.038;6.992;2023-05-20T10:15:38;112171.53;;;-144.33;53.79
19843;BME280;10082;51.038;6.992;2023-05-20T10:18:18;112171.53;;;-144.33;57.85
19843;BME280;10082;51.038;6.992;2023-05-20T10:20:50;112171.53;;;-144.33;55.69
19843;BME280;10082;51.038;6.992;2023-05-20T10:23:23;112171.53;;;-144.33;55.59
19843;BME280;10082;51.038;6.992;2023-05-20T10:25:56;112171.53;;;-144.33;57.41
19843;BME280;10082;51.038;6.992;2023-05-20T10:28:30;112171.53;;;-144.33;57.20
19843;BME280;10082;51.038;6.992;2023-05-20T10:30:57;112171.53;;;-144.33;56.40
19843;BME280;10082;51.038;6.992;2023-05-20T10:33:25;112171.53;;;-144.33;57.03
19843;BME280;10082;51.038;6.992;2023-05-20T10:35:53;112171.53;;;-144.33;57.12
19843;BME280;10082;51.038;6.992;2023-05-20T10:38:23;112171.53;;;-144.33;59.07
19843;BME280;10082;51.038;6.992;2023-05-20T10:43:36;112171.53;;;-144.33;59.54
19843;BME280;10082;51.038;6.992;2023-05-20T10:46:03;112171.53;;;-144.33;60.19
19843;BME280;10082;51.038;6.992;2023-05-20T10:48:32;112171.53;;;-144.33;60.83
19843;BME280;10082;51.038;6.992;2023-05-20T10:51:00;112171.53;;;-144.33;62.05
19843;BME280;10082;51.038;6.992;2023-05-20T10:53:38;112171.53;;;-144.33;62.94
19843;BME280;10082;51.038;6.992;2023-05-20T10:56:15;112171.53;;;-144.33;62.91
19843;BME280;10082;51.038;6.992;2023-05-20T10:58:43;112171.53;;;-144.33;63.13
19843;BME280;10082;51.038;6.992;2023-05-20T11:01:14;112171.53;;;-144.33;63.20
19843;BME280;10082;51.038;6.992;2023-05-20T11:03:44;112171.53;;;-144.33;62.27
19843;BME280;10082;51.038;6.992;2023-05-20T11:06:13;112171.53;;;-144.33;61.82
19843;BME280;10082;51.038;6.992;2023-05-20T11:08:42;112171.53;;;-144.33;61.30
19843;BME280;10082;51.038;6.992;2023-05-20T11:11:10;112171.53;;;-144.33;59.90
19843;BME280;10082;51.038;6.992;2023-05-20T11:13:37;112171.53;;;-144.33;59.43
19843;BME280;10082;51.038;6.992;2023-05-20T11:16:05;112171.53;;;-144.33;61.97
19843;BME280;10082;51.038;6.992;2023-05-20T11:18:32;112171.53;;;-144.33;62.73
19843;BME280;10082;51.038;6.992;2023-05-20T11:21:00;112171.53;;;-144.33;61.21
19843;BME280;10082;51.038;6.992;2023-05-20T11:23:28;112171.53;;;-144.33;60.96
19843;BME280;10082;51.038;6.992;2023-05-20T11:25:57;112171.53;;;-144.33;62.00
19843;BME280;10082;51.038;6.992;2023-05-20T11:28:25;112171.53;;;-144.33;61.72
19843;BME280;10082;51.038;6.992;2023-05-20T11:30:52;112171.53;;;-144.33;59.97
19843;BME280;10082;51.038;6.992;2023-05-20T11:33:19;112171.53;;;-144.33;61.70
19843;BME280;10082;51.038;6.992;2023-05-20T11:35:48;112171.53;;;-144.33;60.98
19843;BME280;10082;51.038;6.992;2023-05-20T11:38:16;112171.53;;;-144.33;58.59
19843;BME280;10082;51.038;6.992;2023-05-20T11:40:44;112171.53;;;-144.33;60.04
19843;BME280;10082;51.038;6.992;2023-05-20T11:43:13;112171.53;;;-144.33;61.06
19843;BME280;10082;51.038;6.992;2023-05-20T11:45:43;112171.53;;;-144.33;59.97
19843;BME280;10082;51.038;6.992;2023-05-20T11:48:11;112171.53;;;-144.33;58.94
19843;BME280;10082;51.038;6.992;2023-05-20T11:50:41;112171.53;;;-144.33;57.86
19843;BME280;10082;51.038;6.992;2023-05-20T11:53:10;112171.53;;;-144.33;56.40
19843;BME280;10082;51.038;6.992;2023-05-20T11:55:44;112171.53;;;-144.33;55.28
19843;BME280;10082;51.038;6.992;2023-05-20T11:58:17;112171.53;;;-144.33;57.54
19843;BME280;10082;51.038;6.992;2023-05-20T12:00:45;112171.53;;;-144.33;59.89
19843;BME280;10082;51.038;6.992;2023-05-20T12:03:12;112171.53;;;-144.33;57.05
19843;BME280;10082;51.038;6.992;2023-05-20T12:05:40;112171.53;;;-144.33;56.56
19843;BME280;10082;51.038;6.992;2023-05-20T12:08:09;112171.53;;;-144.33;57.20
19843;BME280;10082;51.038;6.992;2023-05-20T12:10:36;112171.53;;;-144.33;57.67
19843;BME280;10082;51.038;6.992;2023-05-20T12:13:04;112171.53;;;-144.33;57.93
19843;BME280;10082;51.038;6.992;2023-05-20T12:15:34;112171.53;;;-144.33;58.50
19843;BME280;10082;51.038;6.992;2023-05-20T12:18:03;112171.53;;;-144.33;59.86
19843;BME280;10082;51.038;6.992;2023-05-20T12:20:31;112171.53;;;-144.33;58.75
19843;BME280;10082;51.038;6.992;2023-05-20T12:22:59;112171.53;;;-144.33;59.55
19843;BME280;10082;51.038;6.992;2023-05-20T12:25:27;112171.53;;;-144.33;57.83
19843;BME280;10082;51.038;6.992;2023-05-20T12:27:54;112171.53;;;-144.33;58.54
19843;BME280;10082;51.038;6.992;2023-05-20T12:30:23;112171.53;;;-144.33;57.29
19843;BME280;10082;51.038;6.992;2023-05-20T12:32:54;112171.53;;;-144.33;58.24
19843;BME280;10082;51.038;6.992;2023-05-20T12:35:23;112171.53;;;-144.33;57.34
19843;BME280;10082;51.038;6.992;2023-05-20T12:37:51;112171.53;;;-144.33;57.42
19843;BME280;10082;51.038;6.992;2023-05-20T12:40:18;112171.53;;;-144.33;58.07
19843;BME280;10082;51.038;6.992;2023-05-20T12:42:45;112171.53;;;-144.33;56.17
19843;BME280;10082;51.038;6.992;2023-05-20T12:45:12;112171.53;;;-144.33;55.76